createdAt,value
2017-11-04T00:05:20.782Z,30
2017-11-04T00:15:23.500Z,30
2017-11-04T00:25:23.971Z,29
2017-11-04T00:35:22.794Z,28
2017-11-04T00:45:23.799Z,28
2017-11-04T00:55:21.453Z,31
2017-11-04T01:05:20.802Z,29
2017-11-04T01:15:20.776Z,28
2017-11-04T01:25:21.916Z,31
2017-11-04T01:35:20.822Z,31
2017-11-04T01:45:20.993Z,29
2017-11-04T01:55:27.582Z,29
2017-11-04T02:05:21.852Z,28
2017-11-04T02:15:20.814Z,27
2017-11-04T02:25:20.917Z,27
2017-11-04T02:35:24.465Z,25
2017-11-04T02:45:20.816Z,25
2017-11-04T02:55:20.899Z,28
2017-11-04T03:05:20.977Z,25
2017-11-04T03:15:24.866Z,27
2017-11-04T03:25:20.893Z,26
2017-11-04T03:35:20.975Z,24
2017-11-04T03:45:21.896Z,24
2017-11-04T03:55:20.966Z,26
2017-11-04T04:05:21.975Z,28
2017-11-04T04:15:24.438Z,28
2017-11-04T04:25:21.258Z,27
2017-11-04T04:35:21.005Z,28
2017-11-04T04:45:22.034Z,28
2017-11-04T04:55:21.336Z,27
2017-11-04T05:05:22.034Z,28
2017-11-04T05:15:21.034Z,27
2017-11-04T05:25:22.036Z,26
2017-11-04T05:35:20.977Z,27
2017-11-04T05:45:21.084Z,26
2017-11-04T05:55:23.067Z,26
2017-11-04T06:05:21.021Z,25
2017-11-04T06:15:24.221Z,29
2017-11-04T06:25:21.074Z,27
2017-11-04T06:35:21.023Z,26
2017-11-04T06:45:21.152Z,29
2017-11-04T06:55:23.129Z,26
2017-11-04T07:05:22.063Z,26
2017-11-04T07:15:21.075Z,25
2017-11-04T07:25:22.098Z,26
2017-11-04T07:35:21.152Z,26
2017-11-04T07:45:21.315Z,25
2017-11-04T07:55:24.633Z,24
2017-11-04T08:05:21.116Z,24
2017-11-04T08:15:21.530Z,23
2017-11-04T08:25:21.182Z,25
2017-11-04T08:35:22.224Z,23
2017-11-04T08:45:21.205Z,25
2017-11-04T08:55:21.244Z,25
2017-11-04T09:05:21.190Z,25
2017-11-04T09:15:21.327Z,25
2017-11-04T09:25:21.145Z,25
2017-11-04T09:35:21.172Z,22
2017-11-04T09:45:21.148Z,25
2017-11-04T09:55:21.209Z,24
2017-11-04T10:05:21.166Z,26
2017-11-04T10:15:21.477Z,25
2017-11-04T10:25:21.253Z,25
2017-11-04T10:35:21.383Z,24
2017-11-04T10:45:21.292Z,26
2017-11-04T10:55:21.311Z,25
2017-11-04T11:05:21.278Z,25
2017-11-04T11:15:21.226Z,25
2017-11-04T11:25:21.550Z,26
2017-11-04T11:35:21.683Z,24
2017-11-04T11:45:21.538Z,27
2017-11-04T11:55:21.307Z,25
2017-11-04T12:05:21.702Z,26
2017-11-04T12:15:21.466Z,25
2017-11-04T12:25:21.541Z,26
2017-11-04T12:35:21.310Z,21
2017-11-04T12:45:21.325Z,21
2017-11-04T12:55:22.213Z,22
2017-11-04T13:05:21.701Z,22
2017-11-04T13:15:21.368Z,21
2017-11-04T13:25:21.407Z,21
2017-11-04T13:35:21.424Z,20
2017-11-04T13:45:21.446Z,20
2017-11-04T13:55:21.453Z,21
2017-11-04T14:05:21.481Z,18
2017-11-04T14:15:21.486Z,19
2017-11-04T14:25:21.446Z,18
2017-11-04T14:35:21.487Z,18
2017-11-04T14:45:21.522Z,19
2017-11-04T14:55:21.490Z,17
2017-11-04T15:05:21.552Z,17
2017-11-04T15:15:21.484Z,17
2017-11-04T15:25:21.482Z,16
2017-11-04T15:35:21.917Z,16
2017-11-04T15:45:21.493Z,15
2017-11-04T15:55:21.609Z,15
2017-11-04T16:05:21.541Z,15
2017-11-04T16:15:22.123Z,15
2017-11-04T16:25:21.741Z,14
2017-11-04T16:35:21.683Z,14
2017-11-04T16:45:22.105Z,13
2017-11-04T16:55:21.831Z,12
2017-11-04T17:05:21.944Z,11
2017-11-04T17:15:21.933Z,10
2017-11-04T17:25:21.627Z,9
2017-11-04T17:35:21.688Z,10
2017-11-04T17:45:21.648Z,10
2017-11-04T17:55:22.047Z,9
2017-11-04T18:05:21.715Z,9
2017-11-04T18:15:21.763Z,10
2017-11-04T18:25:21.760Z,11
2017-11-04T18:35:22.223Z,10
2017-11-04T18:45:21.682Z,10
2017-11-04T18:55:21.724Z,12
2017-11-04T19:05:22.063Z,11
2017-11-04T19:15:21.813Z,13
2017-11-04T19:25:22.240Z,14
2017-11-04T19:35:22.292Z,14
2017-11-04T19:45:21.836Z,14
2017-11-04T19:55:22.978Z,14
2017-11-04T20:05:21.775Z,15
2017-11-04T20:15:22.137Z,15
2017-11-04T20:25:22.303Z,14
2017-11-04T20:35:22.693Z,13
2017-11-04T20:45:21.971Z,14
2017-11-04T20:55:22.833Z,15
2017-11-04T21:05:21.907Z,16
2017-11-04T21:15:21.846Z,15
2017-11-04T21:25:22.009Z,14
2017-11-04T21:35:21.905Z,12
2017-11-04T21:45:21.880Z,11
2017-11-04T21:55:22.011Z,10
2017-11-04T22:05:22.657Z,11
2017-11-04T22:15:22.098Z,13
2017-11-04T22:25:22.097Z,12
2017-11-04T22:35:23.632Z,12
2017-11-04T22:45:22.058Z,13
2017-11-04T22:55:21.939Z,14
2017-11-04T23:05:22.968Z,18
2017-11-04T23:15:23.018Z,14
2017-11-04T23:25:23.126Z,12
2017-11-04T23:35:22.711Z,15
2017-11-04T23:45:22.150Z,16
2017-11-04T23:55:22.051Z,17
